createdAt,value
2018-06-23T00:00:26.765Z,0.00
2018-06-23T00:01:26.767Z,0.00
2018-06-23T00:02:26.828Z,0.00
2018-06-23T00:03:26.793Z,0.00
2018-06-23T00:04:26.797Z,0.00
2018-06-23T00:05:26.818Z,0.00
2018-06-23T00:06:26.819Z,0.00
2018-06-23T00:07:26.866Z,0.00
2018-06-23T00:08:26.879Z,0.00
2018-06-23T00:09:26.914Z,0.00
2018-06-23T00:10:27.031Z,0.00
2018-06-23T00:11:26.929Z,0.00
2018-06-23T00:12:26.894Z,0.00
2018-06-23T00:13:26.922Z,0.00
2018-06-23T00:14:26.919Z,0.00
2018-06-23T00:15:26.928Z,0.00
2018-06-23T00:16:26.967Z,0.00
2018-06-23T00:17:27.004Z,0.00
2018-06-23T00:18:26.963Z,0.00
2018-06-23T00:19:26.972Z,0.00
2018-06-23T00:20:27.036Z,0.00
2018-06-23T00:21:26.989Z,0.00
2018-06-23T00:22:27.013Z,0.00
2018-06-23T00:23:27.009Z,0.00
2018-06-23T00:24:27.014Z,0.00
2018-06-23T00:25:27.027Z,0.00
2018-06-23T00:26:27.114Z,0.00
2018-06-23T00:27:27.161Z,0.00
2018-06-23T00:28:27.059Z,0.00
2018-06-23T00:29:27.087Z,0.00
2018-06-23T00:30:27.129Z,0.00
2018-06-23T00:31:27.108Z,0.00
2018-06-23T00:32:27.119Z,0.00
2018-06-23T00:33:27.132Z,0.00
2018-06-23T00:34:27.134Z,0.00
2018-06-23T00:35:27.169Z,0.00
2018-06-23T00:36:27.160Z,0.00
2018-06-23T00:37:27.161Z,0.00
2018-06-23T00:38:27.178Z,0.00
2018-06-23T00:39:27.186Z,0.00
2018-06-23T00:40:27.246Z,0.00
2018-06-23T00:41:27.199Z,0.00
2018-06-23T00:42:27.221Z,0.00
2018-06-23T00:43:27.221Z,0.00
2018-06-23T00:44:27.268Z,0.00
2018-06-23T00:45:27.272Z,0.00
2018-06-23T00:46:27.264Z,0.00
2018-06-23T00:47:27.297Z,0.00
2018-06-23T00:48:27.288Z,0.00
2018-06-23T00:49:27.300Z,0.00
2018-06-23T00:50:27.308Z,0.00
2018-06-23T00:51:27.324Z,0.00
2018-06-23T00:52:27.371Z,0.00
2018-06-23T00:53:27.336Z,0.00
2018-06-23T00:54:27.349Z,0.00
2018-06-23T00:55:27.397Z,0.00
2018-06-23T00:56:27.375Z,0.00
2018-06-23T00:57:27.389Z,0.00
2018-06-23T00:58:27.443Z,0.00
2018-06-23T00:59:27.414Z,0.00
2018-06-23T01:00:27.427Z,0.00
2018-06-23T01:01:27.418Z,0.00
2018-06-23T01:02:27.464Z,0.00
2018-06-23T01:03:27.487Z,0.00
2018-06-23T01:04:27.455Z,0.00
2018-06-23T01:05:27.495Z,0.00
2018-06-23T01:06:27.473Z,0.00
2018-06-23T01:07:27.478Z,0.00
2018-06-23T01:08:27.626Z,0.00
2018-06-23T01:09:27.525Z,0.00
2018-06-23T01:10:27.547Z,0.00
2018-06-23T01:11:27.533Z,0.00
2018-06-23T01:12:27.575Z,0.00
2018-06-23T01:13:27.571Z,0.00
2018-06-23T01:14:27.554Z,0.00
2018-06-23T01:15:27.571Z,0.00
2018-06-23T01:16:27.593Z,0.00
2018-06-23T01:17:27.670Z,0.00
2018-06-23T01:18:27.647Z,0.00
2018-06-23T01:19:27.609Z,0.00
2018-06-23T01:20:27.657Z,0.00
2018-06-23T01:21:27.641Z,0.00
2018-06-23T01:22:27.680Z,0.00
2018-06-23T01:23:27.661Z,0.00
2018-06-23T01:24:27.687Z,0.00
2018-06-23T01:25:27.682Z,0.00
2018-06-23T01:26:27.697Z,0.00
2018-06-23T01:27:27.756Z,0.00
2018-06-23T01:28:27.736Z,0.00
2018-06-23T01:29:27.729Z,0.00
2018-06-23T01:30:27.728Z,0.00
2018-06-23T01:31:27.753Z,0.00
2018-06-23T01:32:27.805Z,0.00
2018-06-23T01:33:27.760Z,0.00
2018-06-23T01:34:27.790Z,0.00
2018-06-23T01:35:27.805Z,0.00
2018-06-23T01:36:27.801Z,0.00
2018-06-23T01:37:27.845Z,0.00
2018-06-23T01:38:27.864Z,0.00
2018-06-23T01:39:27.844Z,0.00
2018-06-23T01:40:27.838Z,0.00
2018-06-23T01:41:27.850Z,0.00
2018-06-23T01:42:27.911Z,0.00
2018-06-23T01:43:27.863Z,0.00
2018-06-23T01:44:27.894Z,0.00
2018-06-23T01:45:27.911Z,0.00
2018-06-23T01:46:27.907Z,0.00
2018-06-23T01:47:27.944Z,0.00
2018-06-23T01:48:27.941Z,0.00
2018-06-23T01:49:28.010Z,0.00
2018-06-23T01:50:27.956Z,0.00
2018-06-23T01:51:27.966Z,0.00
2018-06-23T01:52:28.021Z,0.00
2018-06-23T01:53:28.049Z,0.00
2018-06-23T01:54:27.991Z,0.00
2018-06-23T01:55:28.028Z,0.00
2018-06-23T01:56:28.009Z,0.00
2018-06-23T01:57:28.054Z,0.00
2018-06-23T01:58:28.063Z,0.00
2018-06-23T01:59:28.077Z,0.00
2018-06-23T02:00:28.075Z,0.00
2018-06-23T02:01:28.071Z,0.00
2018-06-23T02:02:28.090Z,0.00
2018-06-23T02:03:28.091Z,0.00
2018-06-23T02:04:28.148Z,0.00
2018-06-23T02:05:28.107Z,0.00
2018-06-23T02:06:28.119Z,0.00
2018-06-23T02:07:28.163Z,0.00
2018-06-23T02:08:28.143Z,0.00
2018-06-23T02:09:28.199Z,0.00
2018-06-23T02:10:28.176Z,0.00
2018-06-23T02:11:28.209Z,0.00
2018-06-23T02:12:28.196Z,0.00
2018-06-23T02:13:28.212Z,0.00
2018-06-23T02:14:28.233Z,0.00
2018-06-23T02:15:28.253Z,0.00
2018-06-23T02:16:28.262Z,0.00
2018-06-23T02:17:28.277Z,0.00
2018-06-23T02:18:28.275Z,0.00
2018-06-23T02:19:28.260Z,0.00
2018-06-23T02:20:28.262Z,0.00
2018-06-23T02:21:28.281Z,0.00
2018-06-23T02:22:28.320Z,0.00
2018-06-23T02:23:28.343Z,0.00
2018-06-23T02:24:28.325Z,4.00
2018-06-23T02:25:28.362Z,4.00
2018-06-23T02:26:28.346Z,4.00
2018-06-23T02:27:28.355Z,4.00
2018-06-23T02:28:28.399Z,0.00
2018-06-23T02:29:28.376Z,4.00
2018-06-23T02:30:28.382Z,4.00
2018-06-23T02:31:28.400Z,4.00
2018-06-23T02:32:28.394Z,4.00
2018-06-23T02:33:28.464Z,4.00
2018-06-23T02:34:28.420Z,4.00
2018-06-23T02:35:28.426Z,4.00
2018-06-23T02:36:28.434Z,4.00
2018-06-23T02:37:28.461Z,4.00
2018-06-23T02:38:28.499Z,8.00
2018-06-23T02:39:28.552Z,8.00
2018-06-23T02:40:28.491Z,12.00
2018-06-23T02:41:28.512Z,12.00
2018-06-23T02:42:28.515Z,12.00
2018-06-23T02:43:28.521Z,12.00
2018-06-23T02:44:28.599Z,12.00
2018-06-23T02:45:28.574Z,16.00
2018-06-23T02:46:28.553Z,12.00
2018-06-23T02:47:28.560Z,16.00
2018-06-23T02:48:29.366Z,16.00
2018-06-23T02:49:28.578Z,16.00
2018-06-23T02:50:28.619Z,12.00
2018-06-23T02:51:28.664Z,12.00
2018-06-23T02:52:28.628Z,8.00
2018-06-23T02:53:28.620Z,8.00
2018-06-23T02:54:28.636Z,12.00
2018-06-23T02:55:28.677Z,16.00
2018-06-23T02:56:28.688Z,20.00
2018-06-23T02:57:28.664Z,20.00
2018-06-23T02:58:28.670Z,20.00
2018-06-23T02:59:28.709Z,20.00
2018-06-23T03:00:28.694Z,16.00
2018-06-23T03:01:28.758Z,16.00
2018-06-23T03:02:28.758Z,20.00
2018-06-23T03:03:28.749Z,20.00
2018-06-23T03:04:28.756Z,20.00
2018-06-23T03:05:28.758Z,20.00
2018-06-23T03:06:28.784Z,28.00
2018-06-23T03:07:28.812Z,36.00
2018-06-23T03:08:28.790Z,40.00
2018-06-23T03:09:28.796Z,44.00
2018-06-23T03:10:28.806Z,56.00
2018-06-23T03:11:28.818Z,64.00
2018-06-23T03:12:28.863Z,76.00
2018-06-23T03:13:28.849Z,80.00
2018-06-23T03:14:28.845Z,76.00
2018-06-23T03:15:28.863Z,68.00
2018-06-23T03:16:28.874Z,64.00
2018-06-23T03:17:28.933Z,60.00
2018-06-23T03:18:28.905Z,68.00
2018-06-23T03:19:28.933Z,72.00
2018-06-23T03:20:28.933Z,84.00
2018-06-23T03:21:28.914Z,92.00
2018-06-23T03:22:28.921Z,108.00
2018-06-23T03:23:28.943Z,116.00
2018-06-23T03:24:28.966Z,144.00
2018-06-23T03:25:28.993Z,164.00
2018-06-23T03:26:28.970Z,180.00
2018-06-23T03:27:28.981Z,224.00
2018-06-23T03:28:28.986Z,276.00
2018-06-23T03:29:29.018Z,340.00
2018-06-23T03:30:29.070Z,412.00
2018-06-23T03:31:29.076Z,484.00
2018-06-23T03:32:29.034Z,500.00
2018-06-23T03:33:29.056Z,496.00
2018-06-23T03:34:29.054Z,400.00
2018-06-23T03:35:29.083Z,292.00
2018-06-23T03:36:29.109Z,216.00
2018-06-23T03:37:29.127Z,192.00
2018-06-23T03:38:29.389Z,188.00
2018-06-23T03:39:29.182Z,264.00
2018-06-23T03:40:29.119Z,196.00
2018-06-23T03:41:29.202Z,192.00
2018-06-23T03:42:29.200Z,200.00
2018-06-23T03:43:29.139Z,188.00
2018-06-23T03:44:29.168Z,188.00
2018-06-23T03:45:29.179Z,212.00
2018-06-23T03:46:29.206Z,192.00
2018-06-23T03:47:29.211Z,200.00
2018-06-23T03:48:29.498Z,268.00
2018-06-23T03:49:29.206Z,216.00
2018-06-23T03:50:29.257Z,204.00
2018-06-23T03:51:29.241Z,204.00
2018-06-23T03:52:29.230Z,204.00
2018-06-23T03:53:29.528Z,224.00
2018-06-23T03:54:29.264Z,232.00
2018-06-23T03:55:29.292Z,228.00
2018-06-23T03:56:29.302Z,228.00
2018-06-23T03:57:29.334Z,232.00
2018-06-23T03:58:29.326Z,260.00
2018-06-23T03:59:29.414Z,284.00
2018-06-23T04:00:29.336Z,324.00
2018-06-23T04:01:29.348Z,388.00
2018-06-23T04:02:29.340Z,404.00
2018-06-23T04:03:29.363Z,416.00
2018-06-23T04:04:29.411Z,432.00
2018-06-23T04:05:29.423Z,460.00
2018-06-23T04:06:29.397Z,476.00
2018-06-23T04:07:29.402Z,468.00
2018-06-23T04:08:29.428Z,480.00
2018-06-23T04:09:29.540Z,444.00
2018-06-23T04:10:29.462Z,452.00
2018-06-23T04:11:29.528Z,612.00
2018-06-23T04:12:29.454Z,648.00
2018-06-23T04:13:29.473Z,696.00
2018-06-23T04:14:29.489Z,652.00
2018-06-23T04:15:29.514Z,700.00
2018-06-23T04:16:29.525Z,864.00
2018-06-23T04:17:29.537Z,1080.00
2018-06-23T04:18:29.517Z,1448.00
2018-06-23T04:19:29.538Z,2324.00
2018-06-23T04:20:29.525Z,964.00
2018-06-23T04:21:29.545Z,700.00
2018-06-23T04:22:29.595Z,776.00
2018-06-23T04:23:29.558Z,792.00
2018-06-23T04:24:29.586Z,836.00
2018-06-23T04:25:29.597Z,1000.00
2018-06-23T04:26:29.611Z,4780.00
2018-06-23T04:27:29.666Z,1180.00
2018-06-23T04:28:29.684Z,1136.00
2018-06-23T04:29:29.638Z,1092.00
2018-06-23T04:30:29.652Z,1120.00
2018-06-23T04:31:29.659Z,2000.00
2018-06-23T04:32:29.656Z,1260.00
2018-06-23T04:33:29.721Z,1180.00
2018-06-23T04:34:29.701Z,1176.00
2018-06-23T04:35:29.681Z,976.00
2018-06-23T04:36:29.775Z,828.00
2018-06-23T04:37:29.737Z,640.00
2018-06-23T04:38:29.735Z,604.00
2018-06-23T04:39:29.733Z,684.00
2018-06-23T04:40:29.745Z,804.00
2018-06-23T04:41:29.780Z,984.00
2018-06-23T04:42:29.826Z,1264.00
2018-06-23T04:43:29.898Z,8260.00
2018-06-23T04:44:29.817Z,1472.00
2018-06-23T04:45:29.853Z,1344.00
2018-06-23T04:46:29.907Z,1492.00
2018-06-23T04:47:29.844Z,1220.00
2018-06-23T04:48:29.822Z,1224.00
2018-06-23T04:49:29.883Z,1032.00
2018-06-23T04:50:29.842Z,1096.00
2018-06-23T04:51:29.870Z,1072.00
2018-06-23T04:52:29.924Z,1128.00
2018-06-23T04:53:29.877Z,984.00
2018-06-23T04:54:29.954Z,828.00
2018-06-23T04:55:29.917Z,904.00
2018-06-23T04:56:29.931Z,764.00
2018-06-23T04:57:29.947Z,604.00
2018-06-23T04:58:29.989Z,684.00
2018-06-23T04:59:30.042Z,760.00
2018-06-23T05:00:30.015Z,928.00
2018-06-23T05:01:29.961Z,988.00
2018-06-23T05:02:29.983Z,888.00
2018-06-23T05:03:30.006Z,684.00
2018-06-23T05:04:30.031Z,588.00
2018-06-23T05:05:30.029Z,608.00
2018-06-23T05:06:30.043Z,760.00
2018-06-23T05:07:30.039Z,732.00
2018-06-23T05:08:30.060Z,748.00
2018-06-23T05:09:30.057Z,864.00
2018-06-23T05:10:30.118Z,760.00
2018-06-23T05:11:30.068Z,704.00
2018-06-23T05:12:30.106Z,628.00
2018-06-23T05:13:30.127Z,688.00
2018-06-23T05:14:30.124Z,676.00
2018-06-23T05:15:30.146Z,628.00
2018-06-23T05:16:30.153Z,644.00
2018-06-23T05:17:30.170Z,764.00
2018-06-23T05:18:30.157Z,872.00
2018-06-23T05:19:30.156Z,1048.00
2018-06-23T05:20:30.173Z,1028.00
2018-06-23T05:21:30.267Z,1036.00
2018-06-23T05:22:30.196Z,1108.00
2018-06-23T05:23:30.210Z,1144.00
2018-06-23T05:24:30.208Z,1392.00
2018-06-23T05:25:30.215Z,1632.00
2018-06-23T05:26:30.256Z,1584.00
2018-06-23T05:27:30.246Z,1556.00
2018-06-23T05:28:30.316Z,1484.00
2018-06-23T05:29:30.284Z,1428.00
2018-06-23T05:30:30.302Z,992.00
2018-06-23T05:31:30.279Z,1256.00
2018-06-23T05:32:30.384Z,1092.00
2018-06-23T05:33:30.380Z,1288.00
2018-06-23T05:34:30.341Z,1308.00
2018-06-23T05:35:30.336Z,1200.00
2018-06-23T05:36:30.598Z,916.00
2018-06-23T05:37:30.353Z,740.00
2018-06-23T05:38:30.372Z,748.00
2018-06-23T05:39:30.447Z,1096.00
2018-06-23T05:40:30.386Z,1400.00
2018-06-23T05:41:30.404Z,1640.00
2018-06-23T05:42:30.419Z,1736.00
2018-06-23T05:43:30.449Z,1668.00
2018-06-23T05:44:30.434Z,1300.00
2018-06-23T05:45:30.445Z,3296.00
2018-06-23T05:46:30.453Z,1368.00
2018-06-23T05:47:30.464Z,1736.00
2018-06-23T05:48:30.510Z,2920.00
2018-06-23T05:49:30.512Z,3244.00
2018-06-23T05:50:30.575Z,2436.00
2018-06-23T05:51:30.531Z,2336.00
2018-06-23T05:52:30.525Z,2028.00
2018-06-23T05:53:30.620Z,1948.00
2018-06-23T05:54:30.541Z,2120.00
2018-06-23T05:55:30.543Z,2132.00
2018-06-23T05:56:30.618Z,2060.00
2018-06-23T05:57:30.595Z,1928.00
2018-06-23T05:58:30.643Z,1820.00
2018-06-23T05:59:30.590Z,1944.00
2018-06-23T06:00:30.604Z,1884.00
2018-06-23T06:01:30.656Z,1456.00
2018-06-23T06:02:30.682Z,1104.00
2018-06-23T06:03:30.638Z,908.00
2018-06-23T06:04:30.647Z,988.00
2018-06-23T06:05:30.671Z,936.00
2018-06-23T06:06:30.676Z,944.00
2018-06-23T06:07:30.715Z,1004.00
2018-06-23T06:08:30.724Z,1000.00
2018-06-23T06:09:30.702Z,1020.00
2018-06-23T06:10:30.728Z,944.00
2018-06-23T06:11:30.719Z,880.00
2018-06-23T06:12:30.787Z,840.00
2018-06-23T06:13:30.786Z,740.00
2018-06-23T06:14:30.763Z,640.00
2018-06-23T06:15:30.834Z,640.00
2018-06-23T06:16:30.777Z,652.00
2018-06-23T06:17:30.795Z,768.00
2018-06-23T06:18:31.294Z,968.00
2018-06-23T06:19:30.833Z,1084.00
2018-06-23T06:20:30.818Z,1164.00
2018-06-23T06:21:32.296Z,1172.00
2018-06-23T06:22:30.860Z,1112.00
2018-06-23T06:23:30.860Z,1068.00
2018-06-23T06:24:30.915Z,1048.00
2018-06-23T06:25:30.885Z,1024.00
2018-06-23T06:26:32.240Z,1040.00
2018-06-23T06:27:30.916Z,1028.00
2018-06-23T06:28:30.915Z,960.00
2018-06-23T06:29:31.047Z,1008.00
2018-06-23T06:30:31.070Z,1028.00
2018-06-23T06:31:30.990Z,1092.00
2018-06-23T06:32:30.968Z,1108.00
2018-06-23T06:33:30.955Z,1052.00
2018-06-23T06:34:30.966Z,1024.00
2018-06-23T06:35:31.053Z,1080.00
2018-06-23T06:36:31.009Z,1028.00
2018-06-23T06:37:31.010Z,980.00
2018-06-23T06:38:31.035Z,912.00
2018-06-23T06:39:31.066Z,832.00
2018-06-23T06:40:31.137Z,892.00
2018-06-23T06:41:31.063Z,932.00
2018-06-23T06:42:31.063Z,1000.00
2018-06-23T06:43:31.090Z,860.00
2018-06-23T06:44:31.125Z,728.00
2018-06-23T06:45:31.090Z,704.00
2018-06-23T06:46:31.099Z,616.00
2018-06-23T06:47:31.176Z,656.00
2018-06-23T06:48:31.133Z,664.00
2018-06-23T06:49:31.129Z,644.00
2018-06-23T06:50:31.190Z,684.00
2018-06-23T06:51:31.167Z,576.00
2018-06-23T06:52:31.224Z,584.00
2018-06-23T06:53:31.196Z,568.00
2018-06-23T06:54:31.229Z,624.00
2018-06-23T06:55:31.210Z,688.00
2018-06-23T06:56:31.210Z,784.00
2018-06-23T06:57:31.241Z,732.00
2018-06-23T06:58:31.246Z,628.00
2018-06-23T06:59:31.252Z,660.00
2018-06-23T07:00:31.269Z,604.00
2018-06-23T07:01:31.311Z,724.00
2018-06-23T07:02:31.307Z,728.00
2018-06-23T07:03:31.423Z,832.00
2018-06-23T07:04:31.289Z,1008.00
2018-06-23T07:05:31.477Z,1192.00
2018-06-23T07:06:31.446Z,1208.00
2018-06-23T07:07:31.382Z,1128.00
2018-06-23T07:08:31.405Z,968.00
2018-06-23T07:09:31.363Z,752.00
2018-06-23T07:10:31.365Z,604.00
2018-06-23T07:11:31.392Z,692.00
2018-06-23T07:12:31.604Z,1012.00
2018-06-23T07:13:31.456Z,1260.00
2018-06-23T07:14:31.457Z,1508.00
2018-06-23T07:15:32.101Z,1716.00
2018-06-23T07:16:31.434Z,1856.00
2018-06-23T07:17:31.497Z,2016.00
2018-06-23T07:18:31.477Z,2256.00
2018-06-23T07:19:31.485Z,2744.00
2018-06-23T07:20:31.488Z,2768.00
2018-06-23T07:21:31.643Z,3036.00
2018-06-23T07:22:31.508Z,2860.00
2018-06-23T07:23:31.577Z,2688.00
2018-06-23T07:24:31.603Z,2340.00
2018-06-23T07:25:31.539Z,2560.00
2018-06-23T07:26:31.551Z,1832.00
2018-06-23T07:27:31.547Z,1352.00
2018-06-23T07:28:31.583Z,1100.00
2018-06-23T07:29:31.600Z,860.00
2018-06-23T07:30:31.579Z,912.00
2018-06-23T07:31:31.589Z,800.00
2018-06-23T07:32:31.623Z,732.00
2018-06-23T07:33:31.640Z,832.00
2018-06-23T07:34:31.792Z,1052.00
2018-06-23T07:35:31.660Z,1116.00
2018-06-23T07:36:31.665Z,1156.00
2018-06-23T07:37:31.707Z,1184.00
2018-06-23T07:38:31.759Z,1096.00
2018-06-23T07:39:31.684Z,1100.00
2018-06-23T07:40:31.743Z,1220.00
2018-06-23T07:41:31.780Z,1324.00
2018-06-23T07:42:31.738Z,1440.00
2018-06-23T07:43:31.757Z,1336.00
2018-06-23T07:44:31.773Z,1320.00
2018-06-23T07:45:31.751Z,1352.00
2018-06-23T07:46:31.873Z,1388.00
2018-06-23T07:47:31.791Z,1336.00
2018-06-23T07:48:31.785Z,1328.00
2018-06-23T07:49:31.811Z,1300.00
2018-06-23T07:50:31.807Z,1148.00
2018-06-23T07:51:31.851Z,1120.00
2018-06-23T07:52:31.856Z,1156.00
2018-06-23T07:53:31.982Z,1280.00
2018-06-23T07:54:31.906Z,1200.00
2018-06-23T07:55:31.870Z,1236.00
2018-06-23T07:56:31.879Z,1312.00
2018-06-23T07:57:31.909Z,1360.00
2018-06-23T07:58:31.953Z,1252.00
2018-06-23T07:59:31.952Z,1192.00
2018-06-23T08:00:31.915Z,1016.00
2018-06-23T08:01:32.014Z,952.00
2018-06-23T08:02:32.009Z,944.00
2018-06-23T08:03:31.962Z,980.00
2018-06-23T08:04:32.027Z,956.00
2018-06-23T08:05:32.015Z,916.00
2018-06-23T08:06:32.001Z,984.00
2018-06-23T08:07:31.991Z,1204.00
2018-06-23T08:08:31.996Z,1336.00
2018-06-23T08:09:32.071Z,1268.00
2018-06-23T08:10:32.033Z,1140.00
2018-06-23T08:11:32.056Z,1016.00
2018-06-23T08:12:32.065Z,980.00
2018-06-23T08:13:32.065Z,1240.00
2018-06-23T08:14:32.129Z,1344.00
2018-06-23T08:15:32.127Z,1364.00
2018-06-23T08:16:32.125Z,1420.00
2018-06-23T08:17:32.144Z,1516.00
2018-06-23T08:18:32.180Z,1532.00
2018-06-23T08:19:32.147Z,1432.00
2018-06-23T08:20:32.416Z,1232.00
2018-06-23T08:21:32.156Z,1132.00
2018-06-23T08:22:32.187Z,1192.00
2018-06-23T08:23:32.203Z,976.00
2018-06-23T08:24:32.206Z,784.00
2018-06-23T08:25:32.215Z,648.00
2018-06-23T08:26:32.323Z,644.00
2018-06-23T08:27:32.369Z,704.00
2018-06-23T08:28:32.242Z,716.00
2018-06-23T08:29:32.255Z,892.00
2018-06-23T08:30:32.267Z,944.00
2018-06-23T08:31:32.318Z,1040.00
2018-06-23T08:32:32.282Z,1056.00
2018-06-23T08:33:33.276Z,1040.00
2018-06-23T08:34:32.303Z,856.00
2018-06-23T08:35:32.338Z,852.00
2018-06-23T08:36:32.340Z,880.00
2018-06-23T08:37:32.335Z,1196.00
2018-06-23T08:38:32.464Z,1504.00
2018-06-23T08:39:32.409Z,1780.00
2018-06-23T08:40:32.503Z,2028.00
2018-06-23T08:41:32.397Z,2136.00
2018-06-23T08:42:32.539Z,2016.00
2018-06-23T08:43:32.464Z,2088.00
2018-06-23T08:44:32.470Z,2144.00
2018-06-23T08:45:32.474Z,2280.00
2018-06-23T08:46:32.510Z,2136.00
2018-06-23T08:47:32.468Z,2104.00
2018-06-23T08:48:32.456Z,1952.00
2018-06-23T08:49:32.513Z,1984.00
2018-06-23T08:50:32.534Z,2092.00
2018-06-23T08:51:32.487Z,2216.00
2018-06-23T08:52:32.583Z,2232.00
2018-06-23T08:53:32.634Z,2296.00
2018-06-23T08:54:32.512Z,2468.00
2018-06-23T08:55:32.531Z,2600.00
2018-06-23T08:56:32.586Z,2832.00
2018-06-23T08:57:32.618Z,2916.00
2018-06-23T08:58:32.574Z,2956.00
2018-06-23T08:59:32.603Z,2964.00
2018-06-23T09:00:32.690Z,2920.00
2018-06-23T09:01:32.650Z,2992.00
2018-06-23T09:02:32.659Z,3024.00
2018-06-23T09:03:32.642Z,2880.00
2018-06-23T09:04:32.838Z,2924.00
2018-06-23T09:05:32.637Z,2688.00
2018-06-23T09:06:32.676Z,2440.00
2018-06-23T09:07:32.706Z,2224.00
2018-06-23T09:08:32.675Z,2092.00
2018-06-23T09:09:32.771Z,1992.00
2018-06-23T09:10:32.704Z,1968.00
2018-06-23T09:11:32.766Z,1800.00
2018-06-23T09:12:32.743Z,1984.00
2018-06-23T09:13:32.763Z,2060.00
2018-06-23T09:14:32.789Z,1940.00
2018-06-23T09:15:32.773Z,2212.00
2018-06-23T09:16:33.783Z,2472.00
2018-06-23T09:17:32.853Z,2772.00
2018-06-23T09:18:32.806Z,2956.00
2018-06-23T09:19:32.851Z,2716.00
2018-06-23T09:20:32.843Z,2332.00
2018-06-23T09:21:32.841Z,2308.00
2018-06-23T09:22:32.871Z,2252.00
2018-06-23T09:23:32.907Z,2160.00
2018-06-23T09:24:32.889Z,2228.00
2018-06-23T09:25:32.986Z,2244.00
2018-06-23T09:26:32.900Z,2600.00
2018-06-23T09:27:32.909Z,2580.00
2018-06-23T09:28:32.909Z,2700.00
2018-06-23T09:29:32.932Z,2640.00
2018-06-23T09:30:33.092Z,2720.00
2018-06-23T09:31:32.994Z,2648.00
2018-06-23T09:32:32.995Z,2844.00
2018-06-23T09:33:33.001Z,2912.00
2018-06-23T09:34:33.018Z,3152.00
2018-06-23T09:35:33.063Z,2564.00
2018-06-23T09:36:33.045Z,2792.00
2018-06-23T09:37:33.080Z,2700.00
2018-06-23T09:38:33.039Z,2528.00
2018-06-23T09:39:33.043Z,2480.00
2018-06-23T09:40:33.153Z,2468.00
2018-06-23T09:41:33.115Z,2704.00
2018-06-23T09:42:33.098Z,2960.00
2018-06-23T09:43:33.098Z,3000.00
2018-06-23T09:44:33.169Z,2928.00
2018-06-23T09:45:33.335Z,2748.00
2018-06-23T09:46:33.134Z,2432.00
2018-06-23T09:47:33.143Z,2096.00
2018-06-23T09:48:33.155Z,1988.00
2018-06-23T09:49:33.191Z,2008.00
2018-06-23T09:50:33.198Z,1180.00
2018-06-23T09:51:33.224Z,924.00
2018-06-23T09:52:33.315Z,1524.00
2018-06-23T09:53:33.199Z,1064.00
2018-06-23T09:54:33.244Z,1216.00
2018-06-23T09:55:33.261Z,1160.00
2018-06-23T09:56:33.279Z,1240.00
2018-06-23T09:57:33.259Z,1400.00
2018-06-23T09:58:33.290Z,1672.00
2018-06-23T09:59:33.282Z,2064.00
2018-06-23T10:00:33.339Z,2288.00
2018-06-23T10:01:33.310Z,2408.00
2018-06-23T10:02:33.345Z,1308.00
2018-06-23T10:03:33.357Z,2460.00
2018-06-23T10:04:33.350Z,2400.00
2018-06-23T10:05:33.376Z,2364.00
2018-06-23T10:06:33.673Z,2408.00
2018-06-23T10:07:33.810Z,2596.00
2018-06-23T10:08:33.393Z,2728.00
2018-06-23T10:09:33.417Z,2896.00
2018-06-23T10:10:33.399Z,2944.00
2018-06-23T10:11:33.463Z,3384.00
2018-06-23T10:12:33.449Z,3052.00
2018-06-23T10:13:34.452Z,3136.00
2018-06-23T10:14:33.499Z,3120.00
2018-06-23T10:15:33.713Z,3116.00
2018-06-23T10:16:33.503Z,3008.00
2018-06-23T10:17:33.531Z,2908.00
2018-06-23T10:18:33.544Z,2876.00
2018-06-23T10:19:33.523Z,2876.00
2018-06-23T10:20:33.521Z,2968.00
2018-06-23T10:21:33.568Z,3036.00
2018-06-23T10:22:34.158Z,3076.00
2018-06-23T10:23:33.597Z,3028.00
2018-06-23T10:24:33.609Z,3036.00
2018-06-23T10:25:33.657Z,2948.00
2018-06-23T10:26:33.637Z,2964.00
2018-06-23T10:27:33.643Z,3016.00
2018-06-23T10:28:33.653Z,2968.00
2018-06-23T10:29:33.722Z,2748.00
2018-06-23T10:30:33.672Z,2672.00
2018-06-23T10:31:33.677Z,2624.00
2018-06-23T10:32:33.704Z,2576.00
2018-06-23T10:33:33.752Z,2500.00
2018-06-23T10:34:33.724Z,2260.00
2018-06-23T10:35:33.767Z,2048.00
2018-06-23T10:36:33.738Z,1940.00
2018-06-23T10:37:33.759Z,1892.00
2018-06-23T10:38:33.814Z,1844.00
2018-06-23T10:39:33.785Z,1844.00
2018-06-23T10:40:33.996Z,2000.00
2018-06-23T10:41:33.803Z,2032.00
2018-06-23T10:42:34.024Z,2020.00
2018-06-23T10:43:33.804Z,2060.00
2018-06-23T10:44:33.842Z,2080.00
2018-06-23T10:45:33.864Z,2164.00
2018-06-23T10:46:33.851Z,2324.00
2018-06-23T10:47:33.965Z,2376.00
2018-06-23T10:48:33.902Z,2472.00
2018-06-23T10:49:33.927Z,2416.00
2018-06-23T10:50:33.939Z,2416.00
2018-06-23T10:51:33.914Z,2432.00
2018-06-23T10:52:33.929Z,2412.00
2018-06-23T10:53:33.967Z,2412.00
2018-06-23T10:54:33.982Z,2276.00
2018-06-23T10:55:33.970Z,2160.00
2018-06-23T10:56:33.966Z,2236.00
2018-06-23T10:57:33.978Z,2308.00
2018-06-23T10:58:34.071Z,2364.00
2018-06-23T10:59:34.067Z,2004.00
2018-06-23T11:00:34.016Z,2124.00
2018-06-23T11:01:34.028Z,2044.00
2018-06-23T11:02:34.068Z,2208.00
2018-06-23T11:03:34.070Z,2248.00
2018-06-23T11:04:34.097Z,2284.00
2018-06-23T11:05:34.145Z,2460.00
2018-06-23T11:06:34.109Z,2412.00
2018-06-23T11:07:34.109Z,2240.00
2018-06-23T11:08:34.167Z,2296.00
2018-06-23T11:09:34.138Z,2204.00
2018-06-23T11:10:34.188Z,2068.00
2018-06-23T11:11:34.164Z,1852.00
2018-06-23T11:12:34.222Z,1636.00
2018-06-23T11:13:34.182Z,1620.00
2018-06-23T11:14:34.226Z,1580.00
2018-06-23T11:15:34.210Z,1836.00
2018-06-23T11:16:34.250Z,2016.00
2018-06-23T11:17:34.265Z,1848.00
2018-06-23T11:18:34.288Z,1860.00
2018-06-23T11:19:34.264Z,1820.00
2018-06-23T11:20:34.276Z,1620.00
2018-06-23T11:21:34.354Z,1544.00
2018-06-23T11:22:34.407Z,1808.00
2018-06-23T11:23:34.335Z,1968.00
2018-06-23T11:24:34.481Z,2040.00
2018-06-23T11:25:34.340Z,2132.00
2018-06-23T11:26:34.370Z,2060.00
2018-06-23T11:27:34.350Z,2096.00
2018-06-23T11:28:34.391Z,2176.00
2018-06-23T11:29:34.367Z,2224.00
2018-06-23T11:30:34.421Z,2436.00
2018-06-23T11:31:34.416Z,2568.00
2018-06-23T11:32:34.415Z,2536.00
2018-06-23T11:33:34.418Z,2384.00
2018-06-23T11:34:34.456Z,2408.00
2018-06-23T11:35:34.481Z,2420.00
2018-06-23T11:36:34.487Z,2360.00
2018-06-23T11:37:34.492Z,2016.00
2018-06-23T11:38:34.513Z,1772.00
2018-06-23T11:39:34.516Z,1684.00
2018-06-23T11:40:34.577Z,1620.00
2018-06-23T11:41:34.648Z,1480.00
2018-06-23T11:42:34.534Z,1420.00
2018-06-23T11:43:34.556Z,1428.00
2018-06-23T11:44:34.583Z,1564.00
2018-06-23T11:45:34.597Z,1528.00
2018-06-23T11:46:34.638Z,1568.00
2018-06-23T11:47:34.660Z,1668.00
2018-06-23T11:48:34.602Z,1660.00
2018-06-23T11:49:34.640Z,1788.00
2018-06-23T11:50:34.647Z,1956.00
2018-06-23T11:51:34.677Z,1992.00
2018-06-23T11:52:34.677Z,2096.00
2018-06-23T11:53:34.727Z,2144.00
2018-06-23T11:54:34.675Z,2220.00
2018-06-23T11:55:34.697Z,2100.00
2018-06-23T11:56:34.761Z,1864.00
2018-06-23T11:57:34.745Z,1796.00
2018-06-23T11:58:34.748Z,1700.00
2018-06-23T11:59:34.751Z,1700.00
2018-06-23T12:00:34.744Z,1992.00
2018-06-23T12:01:34.763Z,2000.00
2018-06-23T12:02:34.780Z,2036.00
2018-06-23T12:03:34.870Z,2244.00
2018-06-23T12:04:34.848Z,2080.00
2018-06-23T12:05:34.842Z,2236.00
2018-06-23T12:06:34.836Z,2408.00
2018-06-23T12:07:34.835Z,2516.00
2018-06-23T12:08:34.899Z,2632.00
2018-06-23T12:09:34.862Z,2304.00
2018-06-23T12:10:34.883Z,2392.00
2018-06-23T12:11:35.091Z,2464.00
2018-06-23T12:12:34.903Z,2524.00
2018-06-23T12:13:34.973Z,2620.00
2018-06-23T12:14:34.926Z,2752.00
2018-06-23T12:15:34.935Z,2624.00
2018-06-23T12:16:34.952Z,2568.00
2018-06-23T12:17:35.030Z,2456.00
2018-06-23T12:18:34.976Z,2280.00
2018-06-23T12:19:35.002Z,2264.00
2018-06-23T12:20:34.992Z,2056.00
2018-06-23T12:21:35.034Z,2340.00
2018-06-23T12:22:35.072Z,2380.00
2018-06-23T12:23:35.058Z,2308.00
2018-06-23T12:24:35.051Z,1996.00
2018-06-23T12:25:35.155Z,1956.00
2018-06-23T12:26:35.088Z,2040.00
2018-06-23T12:27:35.087Z,2176.00